Thor Magnhild — 9V2628 — position and weather

sailwx.info

Track history (hours):
 
Tides and Currents Weather Stations Pressure Air Temp Water Temp Dewpoint Dewpoint Depression Visibility Wind Speed Wind Dir Waves Ship Positions

Thor Magnhild

Last reported at 2018-Jul-20 13:37 UTC. Time now 2018-Jul-20 18:08 UTC.
Position N 37°15' E 005°42'.

Length 189 m; draft 10 m.

Type: Cargo ship. MMSI: 564415000.

Date/timePositionNaut miles runAvg speedWind from/ knotsBaromVisibWave heightAir tempDewpointWater temp
2018-Jul-20 13:37N 37°15' E 005°42'213.5
2018-Jul-20 13:29N 37°15' E 005°40'1313.4
2018-Jul-20 12:32N 37°13' E 005°24'113.4
2018-Jul-20 12:28N 37°13' E 005°23'613.3
2018-Jul-20 12:00N 37°13' E 005°15'713.6
2018-Jul-20 11:30N 37°12' E 005°07'713.6
2018-Jul-20 10:59N 37°12' E 004°58'713.7
2018-Jul-20 10:30N 37°11' E 004°50'713.9
2018-Jul-20 10:00N 37°11' E 004°41'713.9
2018-Jul-20 09:30N 37°10' E 004°32'713.8
2018-Jul-20 08:59N 37°10' E 004°23'3913.5
2018-Jul-20 06:05N 37°04' E 003°35'1813.5
2018-Jul-20 04:46N 37°02' E 003°12'414.0
2018-Jul-20 04:30N 37°02' E 003°08'1214.2
2018-Jul-20 03:38N 36°60' E 002°52'814.2
2018-Jul-20 03:05N 36°59' E 002°43'514.2
2018-Jul-20 02:43N 36°59' E 002°36'914.8
2018-Jul-20 02:07N 36°58' E 002°25'215.0
2018-Jul-20 01:59N 36°58' E 002°23'1114.8
2018-Jul-20 01:16N 36°55' E 002°10'414.7
2018-Jul-20 01:00N 36°53' E 002°06'714.8
2018-Jul-20 00:30N 36°50' E 001°58'714.3
2018-Jul-20 00:00N 36°51' E 001°49'1214.2
2018-Jul-19 23:10N 36°49' E 001°34'514.7
2018-Jul-19 22:50N 36°49' E 001°28'1114.7
2018-Jul-19 22:06N 36°47' E 001°15'114.7
2018-Jul-19 22:00N 36°47' E 001°13'1014.8
2018-Jul-19 21:20N 36°45' E 001°01'514.9
2018-Jul-19 20:59N 36°44' E 000°55'714.6
2018-Jul-19 20:30N 36°43' E 000°46'714.5
2018-Jul-19 19:59N 36°42' E 000°37'714.2
2018-Jul-19 19:30N 36°41' E 000°28'714.4
2018-Jul-19 18:59N 36°40' E 000°19'814.5
2018-Jul-19 18:27N 36°39' E 000°09'714.0
2018-Jul-19 17:59N 36°38' E 000°01'613.8
2018-Jul-19 17:30N 36°37' W 000°07'713.6
2018-Jul-19 16:58N 36°36' W 000°16'713.5
2018-Jul-19 16:27N 36°35' W 000°24'713.2
2018-Jul-19 15:57N 36°34' W 000°32'713.4
2018-Jul-19 15:26N 36°33' W 000°41'613.5
2018-Jul-19 15:00N 36°32' W 000°48'713.4
2018-Jul-19 14:30N 36°31' W 000°57'4114.2
2018-Jul-19 11:37N 36°24' W 001°47'215.2
2018-Jul-19 11:30N 36°24' W 001°49'19415.0
2018-Jul-18 22:36N 35°54' W 005°46'316.0
2018-Jul-18 22:23N 35°54' W 005°50'23112.1
2018-Jul-18 03:13N 37°59' W 009°54'313.0
2018-Jul-18 02:59N 38°02' W 009°55'1013.4
2018-Jul-18 02:17N 38°11' W 009°57'613.6
2018-Jul-18 01:50N 38°17' W 009°59'513.6
2018-Jul-18 01:27N 38°22' W 010°01'613.6
2018-Jul-18 01:00N 38°28' W 010°03'713.4
2018-Jul-18 00:30N 38°34' W 010°05'713.0
2018-Jul-17 23:56N 38°42' W 010°07'613.8
2018-Jul-17 23:30N 38°48' W 010°07'713.6
2018-Jul-17 22:57N 38°55' W 010°07'614.1
2018-Jul-17 22:30N 39°02' W 010°07'714.2
2018-Jul-17 22:01N 39°09' W 010°07'713.9
2018-Jul-17 21:29N 39°16' W 010°07'813.2
2018-Jul-17 20:52N 39°24' W 010°07'613.6
2018-Jul-17 20:27N 39°30' W 010°07'  
2018-Jul-15 12:52N 51°46' W 005°56'513.5
2018-Jul-15 12:30N 51°51' W 005°54'612.9
2018-Jul-15 12:00N 51°57' W 005°51'611.9
2018-Jul-15 11:30N 52°03' W 005°47'611.4
2018-Jul-15 11:00N 52°08' W 005°44'611.6
2018-Jul-15 10:30N 52°14' W 005°41'611.1
2018-Jul-15 10:00N 52°19' W 005°37'510.8
2018-Jul-15 09:30N 52°24' W 005°34'1810.9
2018-Jul-15 07:54N 52°40' W 005°24'511.9
2018-Jul-15 07:30N 52°45' W 005°21'812.9
2018-Jul-15 06:55N 52°52' W 005°17'4715.0
2018-Jul-15 03:47N 53°33' W 004°40'916.4
2018-Jul-15 03:16N 53°34' W 004°25'416.4
2018-Jul-15 03:00N 53°34' W 004°18'815.8
2018-Jul-15 02:30N 53°34' W 004°05'814.9
2018-Jul-15 01:59N 53°34' W 003°52'714.6
2018-Jul-15 01:30N 53°33' W 003°40'713.5
2018-Jul-15 01:00N 53°33' W 003°29'611.8
2018-Jul-15 00:30N 53°32' W 003°19'4 8.4
2018-Jul-15 00:00N 53°31' W 003°12'5 9.5
2018-Jul-14 23:30N 53°29' W 003°05'3 6.7
2018-Jul-14 22:59N 53°26' W 003°01'1 1.3
2018-Jul-14 22:29N 53°27' W 003°01'0 0.4
2018-Jul-14 21:59N 53°27' W 003°01'0 0.4
2018-Jul-14 21:29N 53°27' W 003°01'0 0.0
2018-Jul-14 20:59N 53°27' W 003°01'0 0.0
2018-Jul-14 20:29N 53°27' W 003°01'0 0.0
2018-Jul-14 19:59N 53°27' W 003°01'0 0.0
2018-Jul-14 19:29N 53°27' W 003°01'0 0.0
2018-Jul-14 18:59N 53°27' W 003°01'0 0.0
2018-Jul-14 18:29N 53°27' W 003°01'0 0.0
2018-Jul-14 17:59N 53°27' W 003°01'0 0.0
2018-Jul-14 17:29N 53°27' W 003°01'0 0.0
2018-Jul-14 16:59N 53°27' W 003°01'0 0.0
2018-Jul-14 16:29N 53°27' W 003°01'0 0.0
2018-Jul-14 15:59N 53°27' W 003°01'0 0.0
2018-Jul-14 15:29N 53°27' W 003°01'0 0.0
2018-Jul-14 14:56N 53°27' W 003°01'0 0.0
2018-Jul-14 14:29N 53°27' W 003°01'0 0.0
2018-Jul-14 13:29N 53°27' W 003°01'0 0.0
2018-Jul-14 12:59N 53°27' W 003°01'0 0.0
2018-Jul-14 12:29N 53°27' W 003°01'0 0.0
2018-Jul-14 11:59N 53°27' W 003°01'0 0.0
2018-Jul-14 11:29N 53°27' W 003°01'0 0.0
2018-Jul-14 10:59N 53°27' W 003°01'0 0.0
2018-Jul-14 10:29N 53°27' W 003°01'0 0.0
2018-Jul-14 09:59N 53°27' W 003°01'0 0.0
2018-Jul-14 09:29N 53°27' W 003°01'0 0.0
2018-Jul-14 08:59N 53°27' W 003°01'0 0.0
2018-Jul-14 08:29N 53°27' W 003°01'0 0.0
2018-Jul-14 07:59N 53°27' W 003°01'0 0.0
2018-Jul-14 07:29N 53°27' W 003°01'0 0.0
2018-Jul-14 06:59N 53°27' W 003°01'0 0.0
2018-Jul-14 06:26N 53°27' W 003°01'0 0.0
2018-Jul-14 05:59N 53°27' W 003°01'0 0.0
2018-Jul-14 05:23N 53°27' W 003°01'0 0.0
2018-Jul-14 04:56N 53°27' W 003°01'0 0.0
2018-Jul-14 04:29N 53°27' W 003°01'0 0.0
2018-Jul-14 03:59N 53°27' W 003°01'0 0.0
2018-Jul-14 03:29N 53°27' W 003°01'0 0.0
2018-Jul-14 03:00N 53°27' W 003°01'0 0.0
2018-Jul-14 02:30N 53°27' W 003°01'0 0.0
2018-Jul-14 02:00N 53°27' W 003°01'0 0.0
2018-Jul-14 01:30N 53°27' W 003°01'0 0.0
2018-Jul-14 01:00N 53°27' W 003°01'0 0.0
2018-Jul-14 00:30N 53°27' W 003°01'0 0.0
2018-Jul-14 00:00N 53°27' W 003°01'0 0.0
2018-Jul-13 23:30N 53°27' W 003°01'0 0.0
2018-Jul-13 23:00N 53°27' W 003°01'0 0.0
2018-Jul-13 22:30N 53°27' W 003°01'0 0.0
2018-Jul-13 22:00N 53°27' W 003°01'0 0.0
2018-Jul-13 21:30N 53°27' W 003°01'0 0.0
2018-Jul-13 21:00N 53°27' W 003°01'0 0.0
2018-Jul-13 20:30N 53°27' W 003°01'0 0.0
2018-Jul-13 20:00N 53°27' W 003°01'0 0.0
2018-Jul-13 19:30N 53°27' W 003°01'0 0.0
2018-Jul-13 19:00N 53°27' W 003°01'0 0.0
2018-Jul-13 18:30N 53°27' W 003°01'0 0.0
2018-Jul-13 18:00N 53°27' W 003°01'0 0.0
2018-Jul-13 17:30N 53°27' W 003°01'0 0.0
2018-Jul-13 17:00N 53°27' W 003°01'0 0.0
2018-Jul-13 16:30N 53°27' W 003°01'0 0.0
2018-Jul-13 16:00N 53°27' W 003°01'0 0.0
2018-Jul-13 15:30N 53°27' W 003°01'0 0.0
2018-Jul-13 15:00N 53°27' W 003°01'0 0.0
2018-Jul-13 14:00N 53°27' W 003°01'0 0.0
2018-Jul-13 13:30N 53°27' W 003°01'0 0.0
2018-Jul-13 13:00N 53°27' W 003°01'0 0.0
2018-Jul-13 12:30N 53°27' W 003°01'0 0.0
2018-Jul-13 12:00N 53°27' W 003°01'0 0.1
2018-Jul-13 11:30N 53°27' W 003°01'0 0.1
2018-Jul-13 11:00N 53°27' W 003°01'0 0.0
2018-Jul-13 10:30N 53°27' W 003°01'0 0.0
2018-Jul-13 10:00N 53°27' W 003°01'0 0.0
2018-Jul-13 09:30N 53°27' W 003°01'0 0.0
2018-Jul-13 09:00N 53°27' W 003°01'0 0.0
2018-Jul-13 08:30N 53°27' W 003°01'0 0.0
2018-Jul-13 08:00N 53°27' W 003°01'0 0.0
2018-Jul-13 07:30N 53°27' W 003°01'0 0.0
2018-Jul-13 07:00N 53°27' W 003°01'0 0.0
2018-Jul-13 06:30N 53°27' W 003°01'0 0.0
2018-Jul-13 06:00N 53°27' W 003°01'0 0.0
2018-Jul-13 05:30N 53°27' W 003°01'0 0.0
2018-Jul-13 05:00N 53°27' W 003°01'0 0.0
2018-Jul-13 04:30N 53°27' W 003°01'0 0.0
2018-Jul-13 04:00N 53°27' W 003°01'0 0.0
2018-Jul-13 03:30N 53°27' W 003°01'0 0.0
2018-Jul-13 03:00N 53°27' W 003°01'0 0.0
2018-Jul-13 02:30N 53°27' W 003°01'0 0.0
2018-Jul-13 02:00N 53°27' W 003°01'0 0.0
2018-Jul-13 01:30N 53°27' W 003°01'0 0.0
2018-Jul-13 01:00N 53°27' W 003°01'0 0.0
2018-Jul-13 00:30N 53°27' W 003°01'0 0.0
2018-Jul-13 00:00N 53°27' W 003°01'0 0.0
2018-Jul-12 23:30N 53°27' W 003°01'0 0.0
2018-Jul-12 23:00N 53°27' W 003°01'0 0.0
2018-Jul-12 22:30N 53°27' W 003°01'0 0.0
2018-Jul-12 22:00N 53°27' W 003°01'0 0.0
2018-Jul-12 21:30N 53°27' W 003°01'0 0.0
2018-Jul-12 21:00N 53°27' W 003°01'0 0.0
2018-Jul-12 20:30N 53°27' W 003°01'0 0.0
2018-Jul-12 20:00N 53°27' W 003°01'0 0.0
2018-Jul-12 19:30N 53°27' W 003°01'0 0.0
2018-Jul-12 19:00N 53°27' W 003°01'0 0.0
2018-Jul-12 18:30N 53°27' W 003°01'0 0.0
2018-Jul-12 18:00N 53°27' W 003°01'0 0.0
2018-Jul-12 17:30N 53°27' W 003°01'0 0.0
2018-Jul-12 17:00N 53°27' W 003°01'0 0.0
2018-Jul-12 16:30N 53°27' W 003°01'0 0.0
2018-Jul-12 16:00N 53°27' W 003°01'0 0.0
2018-Jul-12 15:30N 53°27' W 003°01'0 0.0
2018-Jul-12 15:00N 53°27' W 003°01'0 0.0
2018-Jul-12 14:30N 53°27' W 003°01'0 0.0
2018-Jul-12 14:00N 53°27' W 003°01'0 0.0
2018-Jul-12 13:30N 53°27' W 003°01'0 0.0
2018-Jul-12 13:00N 53°27' W 003°01'0 0.0
2018-Jul-12 12:30N 53°27' W 003°01'0 0.0
2018-Jul-12 12:00N 53°27' W 003°01'0 0.0
2018-Jul-12 11:29N 53°27' W 003°01'0 0.0
2018-Jul-12 11:00N 53°27' W 003°01'0 0.0
2018-Jul-12 10:30N 53°27' W 003°01'0 0.0
2018-Jul-12 10:00N 53°27' W 003°01'0 0.1
2018-Jul-12 09:30N 53°27' W 003°01'0 0.0
2018-Jul-12 09:00N 53°27' W 003°01'0 0.0
2018-Jul-12 08:30N 53°27' W 003°01'0 0.0
2018-Jul-12 08:00N 53°27' W 003°01'0 0.0
2018-Jul-12 07:30N 53°27' W 003°01'0 0.0
2018-Jul-12 07:00N 53°27' W 003°01'0 0.0
2018-Jul-12 06:30N 53°27' W 003°01'0 0.1
2018-Jul-12 06:00N 53°27' W 003°01'0 0.1
2018-Jul-12 05:30N 53°27' W 003°01'0 0.0
2018-Jul-12 05:00N 53°27' W 003°01'0 0.0
2018-Jul-12 04:30N 53°27' W 003°01'0 0.0
2018-Jul-12 04:00N 53°27' W 003°01'0 0.0
2018-Jul-12 03:30N 53°27' W 003°01'0 0.0
2018-Jul-12 02:59N 53°27' W 003°01'0 0.0
2018-Jul-12 02:30N 53°27' W 003°01'0 0.0
2018-Jul-12 02:00N 53°27' W 003°01'0 0.0
2018-Jul-12 01:30N 53°27' W 003°01'0 0.0
2018-Jul-12 01:00N 53°27' W 003°01'0 0.0
2018-Jul-12 00:30N 53°27' W 003°01'0 0.0
2018-Jul-12 00:00N 53°27' W 003°01'0 0.0
2018-Jul-11 23:30N 53°27' W 003°01'0 0.0
2018-Jul-11 23:00N 53°27' W 003°01'0 0.0
2018-Jul-11 22:30N 53°27' W 003°01'0 0.0
2018-Jul-11 22:00N 53°27' W 003°01'0 0.0
2018-Jul-11 21:30N 53°27' W 003°01'0 0.0
2018-Jul-11 21:00N 53°27' W 003°01'0 0.0
2018-Jul-11 20:30N 53°27' W 003°01'0 0.0
2018-Jul-11 20:00N 53°27' W 003°01'0 0.0
2018-Jul-11 19:30N 53°27' W 003°01'0 0.0
2018-Jul-11 19:00N 53°27' W 003°01'0 0.0
2018-Jul-11 18:30N 53°27' W 003°01'0 0.0
2018-Jul-11 18:00N 53°27' W 003°01'0 0.0
2018-Jul-11 17:30N 53°27' W 003°01'0 0.0
2018-Jul-11 17:00N 53°27' W 003°01'0 0.0
2018-Jul-11 16:30N 53°27' W 003°01'0 0.0
2018-Jul-11 16:00N 53°27' W 003°01'0 0.0
2018-Jul-11 15:30N 53°27' W 003°01'0 0.0
2018-Jul-11 15:00N 53°27' W 003°01'0 0.0
2018-Jul-11 14:30N 53°27' W 003°01'0 0.0
2018-Jul-11 14:00N 53°27' W 003°01'0 0.0
2018-Jul-11 13:30N 53°27' W 003°01'0 0.0
2018-Jul-11 13:00N 53°27' W 003°01'0 0.0
2018-Jul-11 12:30N 53°27' W 003°01'0 0.0
2018-Jul-11 12:00N 53°27' W 003°01'0 0.0
2018-Jul-11 11:30N 53°27' W 003°01'0 0.0
2018-Jul-11 11:00N 53°27' W 003°01'0 0.0
2018-Jul-11 10:30N 53°27' W 003°01'0 0.0
2018-Jul-11 10:00N 53°27' W 003°01'0 0.0
2018-Jul-11 09:30N 53°27' W 003°01'0 0.0
2018-Jul-11 09:00N 53°27' W 003°01'0 0.0
2018-Jul-11 08:30N 53°27' W 003°01'0 0.0
2018-Jul-11 08:00N 53°27' W 003°01'0 0.0
2018-Jul-11 07:30N 53°27' W 003°01'0 0.1
2018-Jul-11 07:00N 53°27' W 003°01'0 0.1
2018-Jul-11 06:30N 53°27' W 003°01'0 0.0
2018-Jul-11 06:00N 53°27' W 003°01'0 0.0
2018-Jul-11 05:30N 53°27' W 003°01'0 0.0
2018-Jul-11 05:00N 53°27' W 003°01'0 0.0
2018-Jul-11 04:30N 53°27' W 003°01'0 0.0
2018-Jul-11 04:00N 53°27' W 003°01'0 0.0
2018-Jul-11 03:30N 53°27' W 003°01'0 0.0
2018-Jul-11 03:00N 53°27' W 003°01'0 0.0
2018-Jul-11 02:30N 53°27' W 003°01'0 0.0
2018-Jul-11 02:00N 53°27' W 003°01'0 0.0
2018-Jul-11 01:30N 53°27' W 003°01'0 0.0
2018-Jul-11 01:00N 53°27' W 003°01'0 0.1
2018-Jul-11 00:30N 53°27' W 003°01'0 0.0
2018-Jul-11 00:00N 53°27' W 003°01'0 0.0
2018-Jul-10 23:30N 53°27' W 003°01'0 0.0
2018-Jul-10 23:00N 53°27' W 003°01'0 0.0
2018-Jul-10 22:30N 53°27' W 003°01'0 0.0
2018-Jul-10 22:00N 53°27' W 003°01'0 0.0
2018-Jul-10 21:30N 53°27' W 003°01'0 0.0
2018-Jul-10 21:00N 53°27' W 003°01'0 0.0
2018-Jul-10 20:30N 53°27' W 003°01'0 0.0
2018-Jul-10 20:00N 53°27' W 003°01'0 0.0
2018-Jul-10 19:29N 53°27' W 003°01'0 0.0
2018-Jul-10 19:00N 53°27' W 003°01'0 0.0
2018-Jul-10 18:30N 53°27' W 003°01'0 0.0
2018-Jul-10 18:00N 53°27' W 003°01'0 0.0
2018-Jul-10 17:30N 53°27' W 003°01'0 0.0
2018-Jul-10 17:00N 53°27' W 003°01'0 0.0
2018-Jul-10 16:30N 53°27' W 003°01'0 0.0
2018-Jul-10 16:00N 53°27' W 003°01'0 0.0
2018-Jul-10 15:30N 53°27' W 003°01'0 0.0
2018-Jul-10 15:00N 53°27' W 003°01'0 0.0
2018-Jul-10 14:30N 53°27' W 003°01'0 0.0
2018-Jul-10 14:00N 53°27' W 003°01'  
Track history (hours):
 
Tides and Currents Weather Stations Pressure Air Temp Water Temp Dewpoint Dewpoint Depression Visibility Wind Speed Wind Dir Waves Ship Positions

Thor Magnhild

Last reported at 2018-Jul-20 13:37 UTC. Time now 2018-Jul-20 18:08 UTC.
Position N 37°15' E 005°42'.

Length 189 m; draft 10 m.

Type: Cargo ship. MMSI: 564415000.

Date/timePositionNaut miles runAvg speedWind from/ knotsBaromVisibWave heightAir tempDewpointWater temp
2018-Jul-20 13:37N 37°15' E 005°42'213.5
2018-Jul-20 13:29N 37°15' E 005°40'1313.4
2018-Jul-20 12:32N 37°13' E 005°24'113.4
2018-Jul-20 12:28N 37°13' E 005°23'613.3
2018-Jul-20 12:00N 37°13' E 005°15'713.6
2018-Jul-20 11:30N 37°12' E 005°07'713.6
2018-Jul-20 10:59N 37°12' E 004°58'713.7
2018-Jul-20 10:30N 37°11' E 004°50'713.9
2018-Jul-20 10:00N 37°11' E 004°41'713.9
2018-Jul-20 09:30N 37°10' E 004°32'713.8
2018-Jul-20 08:59N 37°10' E 004°23'3913.5
2018-Jul-20 06:05N 37°04' E 003°35'1813.5
2018-Jul-20 04:46N 37°02' E 003°12'414.0
2018-Jul-20 04:30N 37°02' E 003°08'1214.2
2018-Jul-20 03:38N 36°60' E 002°52'814.2
2018-Jul-20 03:05N 36°59' E 002°43'514.2
2018-Jul-20 02:43N 36°59' E 002°36'914.8
2018-Jul-20 02:07N 36°58' E 002°25'215.0
2018-Jul-20 01:59N 36°58' E 002°23'1114.8
2018-Jul-20 01:16N 36°55' E 002°10'414.7
2018-Jul-20 01:00N 36°53' E 002°06'714.8
2018-Jul-20 00:30N 36°50' E 001°58'714.3
2018-Jul-20 00:00N 36°51' E 001°49'1214.2
2018-Jul-19 23:10N 36°49' E 001°34'514.7
2018-Jul-19 22:50N 36°49' E 001°28'1114.7
2018-Jul-19 22:06N 36°47' E 001°15'114.7
2018-Jul-19 22:00N 36°47' E 001°13'1014.8
2018-Jul-19 21:20N 36°45' E 001°01'514.9
2018-Jul-19 20:59N 36°44' E 000°55'714.6
2018-Jul-19 20:30N 36°43' E 000°46'714.5
2018-Jul-19 19:59N 36°42' E 000°37'714.2
2018-Jul-19 19:30N 36°41' E 000°28'714.4
2018-Jul-19 18:59N 36°40' E 000°19'814.5
2018-Jul-19 18:27N 36°39' E 000°09'714.0
2018-Jul-19 17:59N 36°38' E 000°01'613.8
2018-Jul-19 17:30N 36°37' W 000°07'713.6
2018-Jul-19 16:58N 36°36' W 000°16'713.5
2018-Jul-19 16:27N 36°35' W 000°24'713.2
2018-Jul-19 15:57N 36°34' W 000°32'713.4
2018-Jul-19 15:26N 36°33' W 000°41'613.5
2018-Jul-19 15:00N 36°32' W 000°48'713.4
2018-Jul-19 14:30N 36°31' W 000°57'4114.2
2018-Jul-19 11:37N 36°24' W 001°47'215.2
2018-Jul-19 11:30N 36°24' W 001°49'19415.0
2018-Jul-18 22:36N 35°54' W 005°46'316.0
2018-Jul-18 22:23N 35°54' W 005°50'23112.1
2018-Jul-18 03:13N 37°59' W 009°54'313.0
2018-Jul-18 02:59N 38°02' W 009°55'1013.4
2018-Jul-18 02:17N 38°11' W 009°57'613.6
2018-Jul-18 01:50N 38°17' W 009°59'513.6
2018-Jul-18 01:27N 38°22' W 010°01'613.6
2018-Jul-18 01:00N 38°28' W 010°03'713.4
2018-Jul-18 00:30N 38°34' W 010°05'713.0
2018-Jul-17 23:56N 38°42' W 010°07'613.8
2018-Jul-17 23:30N 38°48' W 010°07'713.6
2018-Jul-17 22:57N 38°55' W 010°07'614.1
2018-Jul-17 22:30N 39°02' W 010°07'714.2
2018-Jul-17 22:01N 39°09' W 010°07'713.9
2018-Jul-17 21:29N 39°16' W 010°07'813.2
2018-Jul-17 20:52N 39°24' W 010°07'613.6
2018-Jul-17 20:27N 39°30' W 010°07'  
2018-Jul-15 12:52N 51°46' W 005°56'513.5
2018-Jul-15 12:30N 51°51' W 005°54'612.9
2018-Jul-15 12:00N 51°57' W 005°51'611.9
2018-Jul-15 11:30N 52°03' W 005°47'611.4
2018-Jul-15 11:00N 52°08' W 005°44'611.6
2018-Jul-15 10:30N 52°14' W 005°41'611.1
2018-Jul-15 10:00N 52°19' W 005°37'510.8
2018-Jul-15 09:30N 52°24' W 005°34'1810.9
2018-Jul-15 07:54N 52°40' W 005°24'511.9
2018-Jul-15 07:30N 52°45' W 005°21'812.9
2018-Jul-15 06:55N 52°52' W 005°17'4715.0
2018-Jul-15 03:47N 53°33' W 004°40'916.4
2018-Jul-15 03:16N 53°34' W 004°25'416.4
2018-Jul-15 03:00N 53°34' W 004°18'815.8
2018-Jul-15 02:30N 53°34' W 004°05'814.9
2018-Jul-15 01:59N 53°34' W 003°52'714.6
2018-Jul-15 01:30N 53°33' W 003°40'713.5
2018-Jul-15 01:00N 53°33' W 003°29'611.8
2018-Jul-15 00:30N 53°32' W 003°19'4 8.4
2018-Jul-15 00:00N 53°31' W 003°12'5 9.5
2018-Jul-14 23:30N 53°29' W 003°05'3 6.7
2018-Jul-14 22:59N 53°26' W 003°01'1 1.3
2018-Jul-14 22:29N 53°27' W 003°01'0 0.4
2018-Jul-14 21:59N 53°27' W 003°01'0 0.4
2018-Jul-14 21:29N 53°27' W 003°01'0 0.0
2018-Jul-14 20:59N 53°27' W 003°01'0 0.0
2018-Jul-14 20:29N 53°27' W 003°01'0 0.0
2018-Jul-14 19:59N 53°27' W 003°01'0 0.0
2018-Jul-14 19:29N 53°27' W 003°01'0 0.0
2018-Jul-14 18:59N 53°27' W 003°01'0 0.0
2018-Jul-14 18:29N 53°27' W 003°01'0 0.0
2018-Jul-14 17:59N 53°27' W 003°01'0 0.0
2018-Jul-14 17:29N 53°27' W 003°01'0 0.0
2018-Jul-14 16:59N 53°27' W 003°01'0 0.0
2018-Jul-14 16:29N 53°27' W 003°01'0 0.0
2018-Jul-14 15:59N 53°27' W 003°01'0 0.0
2018-Jul-14 15:29N 53°27' W 003°01'0 0.0
2018-Jul-14 14:56N 53°27' W 003°01'0 0.0
2018-Jul-14 14:29N 53°27' W 003°01'0 0.0
2018-Jul-14 13:29N 53°27' W 003°01'0 0.0
2018-Jul-14 12:59N 53°27' W 003°01'0 0.0
2018-Jul-14 12:29N 53°27' W 003°01'0 0.0
2018-Jul-14 11:59N 53°27' W 003°01'0 0.0
2018-Jul-14 11:29N 53°27' W 003°01'0 0.0
2018-Jul-14 10:59N 53°27' W 003°01'0 0.0
2018-Jul-14 10:29N 53°27' W 003°01'0 0.0
2018-Jul-14 09:59N 53°27' W 003°01'0 0.0
2018-Jul-14 09:29N 53°27' W 003°01'0 0.0
2018-Jul-14 08:59N 53°27' W 003°01'0 0.0
2018-Jul-14 08:29N 53°27' W 003°01'0 0.0
2018-Jul-14 07:59N 53°27' W 003°01'0 0.0
2018-Jul-14 07:29N 53°27' W 003°01'0 0.0
2018-Jul-14 06:59N 53°27' W 003°01'0 0.0
2018-Jul-14 06:26N 53°27' W 003°01'0 0.0
2018-Jul-14 05:59N 53°27' W 003°01'0 0.0
2018-Jul-14 05:23N 53°27' W 003°01'0 0.0
2018-Jul-14 04:56N 53°27' W 003°01'0 0.0
2018-Jul-14 04:29N 53°27' W 003°01'0 0.0
2018-Jul-14 03:59N 53°27' W 003°01'0 0.0
2018-Jul-14 03:29N 53°27' W 003°01'0 0.0
2018-Jul-14 03:00N 53°27' W 003°01'0 0.0
2018-Jul-14 02:30N 53°27' W 003°01'0 0.0
2018-Jul-14 02:00N 53°27' W 003°01'0 0.0
2018-Jul-14 01:30N 53°27' W 003°01'0 0.0
2018-Jul-14 01:00N 53°27' W 003°01'0 0.0
2018-Jul-14 00:30N 53°27' W 003°01'0 0.0
2018-Jul-14 00:00N 53°27' W 003°01'0 0.0
2018-Jul-13 23:30N 53°27' W 003°01'0 0.0
2018-Jul-13 23:00N 53°27' W 003°01'0 0.0
2018-Jul-13 22:30N 53°27' W 003°01'0 0.0
2018-Jul-13 22:00N 53°27' W 003°01'0 0.0
2018-Jul-13 21:30N 53°27' W 003°01'0 0.0
2018-Jul-13 21:00N 53°27' W 003°01'0 0.0
2018-Jul-13 20:30N 53°27' W 003°01'0 0.0
2018-Jul-13 20:00N 53°27' W 003°01'0 0.0
2018-Jul-13 19:30N 53°27' W 003°01'0 0.0
2018-Jul-13 19:00N 53°27' W 003°01'0 0.0
2018-Jul-13 18:30N 53°27' W 003°01'0 0.0
2018-Jul-13 18:00N 53°27' W 003°01'0 0.0
2018-Jul-13 17:30N 53°27' W 003°01'0 0.0
2018-Jul-13 17:00N 53°27' W 003°01'0 0.0
2018-Jul-13 16:30N 53°27' W 003°01'0 0.0
2018-Jul-13 16:00N 53°27' W 003°01'0 0.0
2018-Jul-13 15:30N 53°27' W 003°01'0 0.0
2018-Jul-13 15:00N 53°27' W 003°01'0 0.0
2018-Jul-13 14:00N 53°27' W 003°01'0 0.0
2018-Jul-13 13:30N 53°27' W 003°01'0 0.0
2018-Jul-13 13:00N 53°27' W 003°01'0 0.0
2018-Jul-13 12:30N 53°27' W 003°01'0 0.0
2018-Jul-13 12:00N 53°27' W 003°01'0 0.1
2018-Jul-13 11:30N 53°27' W 003°01'0 0.1
2018-Jul-13 11:00N 53°27' W 003°01'0 0.0
2018-Jul-13 10:30N 53°27' W 003°01'0 0.0
2018-Jul-13 10:00N 53°27' W 003°01'0 0.0
2018-Jul-13 09:30N 53°27' W 003°01'0 0.0
2018-Jul-13 09:00N 53°27' W 003°01'0 0.0
2018-Jul-13 08:30N 53°27' W 003°01'0 0.0
2018-Jul-13 08:00N 53°27' W 003°01'0 0.0
2018-Jul-13 07:30N 53°27' W 003°01'0 0.0
2018-Jul-13 07:00N 53°27' W 003°01'0 0.0
2018-Jul-13 06:30N 53°27' W 003°01'0 0.0
2018-Jul-13 06:00N 53°27' W 003°01'0 0.0
2018-Jul-13 05:30N 53°27' W 003°01'0 0.0
2018-Jul-13 05:00N 53°27' W 003°01'0 0.0
2018-Jul-13 04:30N 53°27' W 003°01'0 0.0
2018-Jul-13 04:00N 53°27' W 003°01'0 0.0
2018-Jul-13 03:30N 53°27' W 003°01'0 0.0
2018-Jul-13 03:00N 53°27' W 003°01'0 0.0
2018-Jul-13 02:30N 53°27' W 003°01'0 0.0
2018-Jul-13 02:00N 53°27' W 003°01'0 0.0
2018-Jul-13 01:30N 53°27' W 003°01'0 0.0
2018-Jul-13 01:00N 53°27' W 003°01'0 0.0
2018-Jul-13 00:30N 53°27' W 003°01'0 0.0
2018-Jul-13 00:00N 53°27' W 003°01'0 0.0
2018-Jul-12 23:30N 53°27' W 003°01'0 0.0
2018-Jul-12 23:00N 53°27' W 003°01'0 0.0
2018-Jul-12 22:30N 53°27' W 003°01'0 0.0
2018-Jul-12 22:00N 53°27' W 003°01'0 0.0
2018-Jul-12 21:30N 53°27' W 003°01'0 0.0
2018-Jul-12 21:00N 53°27' W 003°01'0 0.0
2018-Jul-12 20:30N 53°27' W 003°01'0 0.0
2018-Jul-12 20:00N 53°27' W 003°01'0 0.0
2018-Jul-12 19:30N 53°27' W 003°01'0 0.0
2018-Jul-12 19:00N 53°27' W 003°01'0 0.0
2018-Jul-12 18:30N 53°27' W 003°01'0 0.0
2018-Jul-12 18:00N 53°27' W 003°01'0 0.0
2018-Jul-12 17:30N 53°27' W 003°01'0 0.0
2018-Jul-12 17:00N 53°27' W 003°01'0 0.0
2018-Jul-12 16:30N 53°27' W 003°01'0 0.0
2018-Jul-12 16:00N 53°27' W 003°01'0 0.0
2018-Jul-12 15:30N 53°27' W 003°01'0 0.0
2018-Jul-12 15:00N 53°27' W 003°01'0 0.0
2018-Jul-12 14:30N 53°27' W 003°01'0 0.0
2018-Jul-12 14:00N 53°27' W 003°01'0 0.0
2018-Jul-12 13:30N 53°27' W 003°01'0 0.0
2018-Jul-12 13:00N 53°27' W 003°01'0 0.0
2018-Jul-12 12:30N 53°27' W 003°01'0 0.0
2018-Jul-12 12:00N 53°27' W 003°01'0 0.0
2018-Jul-12 11:29N 53°27' W 003°01'0 0.0
2018-Jul-12 11:00N 53°27' W 003°01'0 0.0
2018-Jul-12 10:30N 53°27' W 003°01'0 0.0
2018-Jul-12 10:00N 53°27' W 003°01'0 0.1
2018-Jul-12 09:30N 53°27' W 003°01'0 0.0
2018-Jul-12 09:00N 53°27' W 003°01'0 0.0
2018-Jul-12 08:30N 53°27' W 003°01'0 0.0
2018-Jul-12 08:00N 53°27' W 003°01'0 0.0
2018-Jul-12 07:30N 53°27' W 003°01'0 0.0
2018-Jul-12 07:00N 53°27' W 003°01'0 0.0
2018-Jul-12 06:30N 53°27' W 003°01'0 0.1
2018-Jul-12 06:00N 53°27' W 003°01'0 0.1
2018-Jul-12 05:30N 53°27' W 003°01'0 0.0
2018-Jul-12 05:00N 53°27' W 003°01'0 0.0
2018-Jul-12 04:30N 53°27' W 003°01'0 0.0
2018-Jul-12 04:00N 53°27' W 003°01'0 0.0
2018-Jul-12 03:30N 53°27' W 003°01'0 0.0
2018-Jul-12 02:59N 53°27' W 003°01'0 0.0
2018-Jul-12 02:30N 53°27' W 003°01'0 0.0
2018-Jul-12 02:00N 53°27' W 003°01'0 0.0
2018-Jul-12 01:30N 53°27' W 003°01'0 0.0
2018-Jul-12 01:00N 53°27' W 003°01'0 0.0
2018-Jul-12 00:30N 53°27' W 003°01'0 0.0
2018-Jul-12 00:00N 53°27' W 003°01'0 0.0
2018-Jul-11 23:30N 53°27' W 003°01'0 0.0
2018-Jul-11 23:00N 53°27' W 003°01'0 0.0
2018-Jul-11 22:30N 53°27' W 003°01'0 0.0
2018-Jul-11 22:00N 53°27' W 003°01'0 0.0
2018-Jul-11 21:30N 53°27' W 003°01'0 0.0
2018-Jul-11 21:00N 53°27' W 003°01'0 0.0
2018-Jul-11 20:30N 53°27' W 003°01'0 0.0
2018-Jul-11 20:00N 53°27' W 003°01'0 0.0
2018-Jul-11 19:30N 53°27' W 003°01'0 0.0
2018-Jul-11 19:00N 53°27' W 003°01'0 0.0
2018-Jul-11 18:30N 53°27' W 003°01'0 0.0
2018-Jul-11 18:00N 53°27' W 003°01'0 0.0
2018-Jul-11 17:30N 53°27' W 003°01'0 0.0
2018-Jul-11 17:00N 53°27' W 003°01'0 0.0
2018-Jul-11 16:30N 53°27' W 003°01'0 0.0
2018-Jul-11 16:00N 53°27' W 003°01'0 0.0
2018-Jul-11 15:30N 53°27' W 003°01'0 0.0
2018-Jul-11 15:00N 53°27' W 003°01'0 0.0
2018-Jul-11 14:30N 53°27' W 003°01'0 0.0
2018-Jul-11 14:00N 53°27' W 003°01'0 0.0
2018-Jul-11 13:30N 53°27' W 003°01'0 0.0
2018-Jul-11 13:00N 53°27' W 003°01'0 0.0
2018-Jul-11 12:30N 53°27' W 003°01'0 0.0
2018-Jul-11 12:00N 53°27' W 003°01'0 0.0
2018-Jul-11 11:30N 53°27' W 003°01'0 0.0
2018-Jul-11 11:00N 53°27' W 003°01'0 0.0
2018-Jul-11 10:30N 53°27' W 003°01'0 0.0
2018-Jul-11 10:00N 53°27' W 003°01'0 0.0
2018-Jul-11 09:30N 53°27' W 003°01'0 0.0
2018-Jul-11 09:00N 53°27' W 003°01'0 0.0
2018-Jul-11 08:30N 53°27' W 003°01'0 0.0
2018-Jul-11 08:00N 53°27' W 003°01'0 0.0
2018-Jul-11 07:30N 53°27' W 003°01'0 0.1
2018-Jul-11 07:00N 53°27' W 003°01'0 0.1
2018-Jul-11 06:30N 53°27' W 003°01'0 0.0
2018-Jul-11 06:00N 53°27' W 003°01'0 0.0
2018-Jul-11 05:30N 53°27' W 003°01'0 0.0
2018-Jul-11 05:00N 53°27' W 003°01'0 0.0
2018-Jul-11 04:30N 53°27' W 003°01'0 0.0
2018-Jul-11 04:00N 53°27' W 003°01'0 0.0
2018-Jul-11 03:30N 53°27' W 003°01'0 0.0
2018-Jul-11 03:00N 53°27' W 003°01'0 0.0
2018-Jul-11 02:30N 53°27' W 003°01'0 0.0
2018-Jul-11 02:00N 53°27' W 003°01'0 0.0
2018-Jul-11 01:30N 53°27' W 003°01'0 0.0
2018-Jul-11 01:00N 53°27' W 003°01'0 0.1
2018-Jul-11 00:30N 53°27' W 003°01'0 0.0
2018-Jul-11 00:00N 53°27' W 003°01'0 0.0
2018-Jul-10 23:30N 53°27' W 003°01'0 0.0
2018-Jul-10 23:00N 53°27' W 003°01'0 0.0
2018-Jul-10 22:30N 53°27' W 003°01'0 0.0
2018-Jul-10 22:00N 53°27' W 003°01'0 0.0
2018-Jul-10 21:30N 53°27' W 003°01'0 0.0
2018-Jul-10 21:00N 53°27' W 003°01'0 0.0
2018-Jul-10 20:30N 53°27' W 003°01'0 0.0
2018-Jul-10 20:00N 53°27' W 003°01'0 0.0
2018-Jul-10 19:29N 53°27' W 003°01'0 0.0
2018-Jul-10 19:00N 53°27' W 003°01'0 0.0
2018-Jul-10 18:30N 53°27' W 003°01'0 0.0
2018-Jul-10 18:00N 53°27' W 003°01'0 0.0
2018-Jul-10 17:30N 53°27' W 003°01'0 0.0
2018-Jul-10 17:00N 53°27' W 003°01'0 0.0
2018-Jul-10 16:30N 53°27' W 003°01'0 0.0
2018-Jul-10 16:00N 53°27' W 003°01'0 0.0
2018-Jul-10 15:30N 53°27' W 003°01'0 0.0
2018-Jul-10 15:00N 53°27' W 003°01'0 0.0
2018-Jul-10 14:30N 53°27' W 003°01'0 0.0
2018-Jul-10 14:00N 53°27' W 003°01'  

Dump ship's entire track history